الصفحة الرئيسية
METAR-TAF:

METAR-TAF

مطار :

أولورو, أستراليا

دائرة عرض: 25-11-10S, خط طول: 130-58-32E, ارتفاع: 496 متر

مراقبة الطقس الحالي

تاريخ ووقت الإصدار 1ساعة و 6 دقيقة قبل الساعة 21:00UTC
ريح 3 عقدة من الشمال/الشمال الغربي
درجة الحرارة 11°درجة مئوية
الرطوبة 87%
ضغط 1018 hPa
الرؤية 10 كم أو أكثر
غيوم متفرقة على ارتفاع 4800 قدم
غيوم متفرقة على ارتفاع 6400 قدم
غيوم مفككة على ارتفاع 8800 قدم

METAR: YAYE 252100Z AUTO 34003KT 9999 // SCT048 SCT064 BKN088 11/09 Q1018

زمن: 07:36 (22:06 UTC)


TAF: مفقودة

أرصاد الطقس والتوقعات من أكثر من 4000 مطار (تقارير الطقس للمطار METAR والتنبؤ بالطقس بالمطارTAF).

المحطات المتاحة هي النقط الصفراء والحمراء على الخريطة.

حرك المؤشر فوق النقطة لمعرفة اسم المحطة.

ثم انقر لمعرفة أرصاد وتوقعات الطقس.

لتغيير الخارطة: اضغط على الأزرار الخضراء مع رمز الصليب الأسود للتكبير. على الزر الأخضر مع شرطة للتصغير، أو على الأسهم الخضراء للخرائط المجاورة.


METAR-TAF: